Terminal Aerodrome Forecast
Issued by NWS Cleveland, OH

Home | Current Version | Previous Version | Graphics & Text | Print | Product List | Glossary Off
Versions: 1 2 3 4 5 6 7 8 9 10 11 12 13 14 15 16 17 18 19 20

000
FTUS41 KCLE 241412 AAA
TAFMFD
TAF AMD
KMFD 241412Z 2414/2512 33008KT P6SM BKN015
      TEMPO 2414/2415 BKN007
     FM242000 33011KT P6SM BKN030
     FM250100 34005KT P6SM SCT030
     FM250900 33004KT 6SM BR BKN025=

USA.gov is the U.S. government's official web portal to all federal, state and local government web resources and services.